Time;durP1;ratioP1;P1;durP2;ratioP2;P2;SDS_P1;SDS_P2;PMS_P1;PMS_P2;Temp;Humidity;BMP_temperature;BMP_pressure;BME280_temperature;BME280_humidity;BME280_pressure;Samples;Min_cycle;Max_cycle;Signal;HPM_P1;HPM_P2
2023/08/23 00:01:45;;;;;;;7.97;7.17;;;23.10;99.90;;;;;;5041228;28;20426;-80
2023/08/23 00:04:11;;;;;;;6.43;5.90;;;23.00;99.90;;;;;;5038773;28;20399;-80
2023/08/23 00:06:36;;;;;;;6.83;6.13;;;23.00;99.90;;;;;;5045881;28;20379;-80
2023/08/23 00:09:04;;;;;;;6.20;5.60;;;23.00;99.90;;;;;;5052273;28;20387;-80
2023/08/23 00:11:30;;;;;;;6.32;5.82;;;22.90;99.90;;;;;;5036416;28;20481;-80
2023/08/23 00:13:55;;;;;;;6.85;6.25;;;22.30;99.90;;;;;;5042952;28;20402;-80
2023/08/23 00:16:21;;;;;;;6.40;5.90;;;22.90;99.90;;;;;;5043344;28;20387;-79
2023/08/23 00:18:47;;;;;;;6.88;6.28;;;22.90;99.90;;;;;;5041908;28;20775;-80
2023/08/23 00:21:12;;;;;;;7.10;6.40;;;23.00;99.90;;;;;;5041489;28;20415;-80
2023/08/23 00:23:38;;;;;;;7.50;6.20;;;22.90;99.90;;;;;;5041750;28;20388;-80
2023/08/23 00:26:04;;;;;;;7.07;6.47;;;22.90;99.90;;;;;;5040273;28;20455;-80
2023/08/23 00:28:29;;;;;;;6.80;6.30;;;22.90;99.90;;;;;;5041566;28;20969;-80
2023/08/23 00:30:55;;;;;;;6.90;6.30;;;22.70;99.90;;;;;;5040805;28;20418;-80
2023/08/23 00:33:21;;;;;;;7.53;6.82;;;22.00;99.90;;;;;;5037966;28;20813;-81
2023/08/23 00:35:47;;;;;;;7.50;6.80;;;22.70;99.90;;;;;;5038224;28;20433;-79
2023/08/23 00:38:13;;;;;;;7.45;6.38;;;22.80;99.90;;;;;;5038470;28;20422;-80
2023/08/23 00:40:38;;;;;;;8.40;7.00;;;22.60;99.90;;;;;;5037637;28;20455;-79
2023/08/23 00:43:07;;;;;;;6.77;6.17;;;22.70;99.90;;;;;;5039399;28;20395;-80
2023/08/23 00:45:35;;;;;;;7.03;6.43;;;22.40;99.90;;;;;;5037400;28;20395;-81
2023/08/23 00:48:02;;;;;;;6.93;6.22;;;22.60;99.90;;;;;;5036842;28;20414;-81
2023/08/23 00:50:28;;;;;;;7.00;6.50;;;22.50;99.90;;;;;;5039203;28;20470;-80
2023/08/23 00:52:54;;;;;;;7.30;6.60;;;22.60;99.90;;;;;;5038830;28;20437;-80
2023/08/23 00:55:20;;;;;;;8.07;7.00;;;22.50;99.90;;;;;;5038450;28;20395;-80
2023/08/23 00:57:45;;;;;;;7.40;6.70;;;23.20;99.90;;;;;;5038341;28;20387;-80
2023/08/23 01:00:12;;;;;;;7.82;6.88;;;22.70;99.90;;;;;;5040720;28;20394;-80
2023/08/23 01:02:38;;;;;;;7.78;7.07;;;22.50;99.90;;;;;;5040102;28;20879;-79
2023/08/23 01:05:03;;;;;;;7.15;6.55;;;22.90;99.90;;;;;;5042888;28;20389;-80
2023/08/23 01:08:10;;;;;;;7.63;6.82;;;22.40;99.90;;;;;;5041593;28;20398;-80
2023/08/23 01:10:52;;;;;;;8.47;7.43;;;22.40;99.90;;;;;;5032581;28;20387;-80
2023/08/23 01:13:30;;;;;;;7.60;6.90;;;22.50;99.90;;;;;;5041414;28;20395;-80
2023/08/23 01:15:57;;;;;;;7.20;6.40;;;22.50;99.90;;;;;;5043112;28;20384;-80
2023/08/23 01:18:24;;;;;;;8.27;7.20;;;22.40;99.90;;;;;;5042347;28;20395;-80
2023/08/23 01:20:52;;;;;;;7.97;7.18;;;22.40;99.90;;;;;;5041875;28;20414;-80
2023/08/23 01:23:18;;;;;;;7.95;7.20;;;22.30;99.90;;;;;;5041417;28;20414;-80
2023/08/23 01:25:51;;;;;;;8.70;7.05;;;22.30;99.90;;;;;;5042288;28;20485;-80
2023/08/23 01:28:17;;;;;;;9.63;6.82;;;22.30;99.90;;;;;;5042210;28;20383;-80
2023/08/23 01:30:43;;;;;;;7.40;6.70;;;22.20;99.90;;;;;;5042989;28;20403;-81
2023/08/23 01:33:14;;;;;;;7.50;6.77;;;22.30;99.90;;;;;;5042062;28;20395;-80
2023/08/23 01:36:08;;;;;;;6.90;6.20;;;22.30;99.90;;;;;;5043489;28;20386;-81
2023/08/23 01:38:34;;;;;;;10.30;6.70;;;22.10;99.90;;;;;;5037006;28;20401;-79
2023/08/23 01:41:00;;;;;;;7.60;6.90;;;22.20;99.90;;;;;;5040043;28;20437;-80
2023/08/23 01:43:26;;;;;;;8.40;7.70;;;22.20;99.90;;;;;;5040508;28;20391;-80
2023/08/23 01:45:52;;;;;;;6.97;6.30;;;22.10;99.90;;;;;;5040161;28;20437;-80
2023/08/23 01:48:17;;;;;;;7.80;7.00;;;22.10;99.90;;;;;;5039495;28;20395;-81
2023/08/23 01:50:43;;;;;;;7.70;7.00;;;22.00;99.90;;;;;;5040582;28;20415;-80
2023/08/23 01:53:08;;;;;;;8.30;7.50;;;22.20;99.90;;;;;;5039561;28;20403;-80
2023/08/23 01:55:34;;;;;;;7.80;7.00;;;22.20;99.90;;;;;;5037977;28;20395;-79
2023/08/23 01:57:59;;;;;;;7.63;6.97;;;21.80;99.90;;;;;;5038408;28;20453;-81
2023/08/23 02:00:25;;;;;;;7.53;6.83;;;22.10;99.90;;;;;;5042524;28;20395;-80
2023/08/23 02:02:50;;;;;;;7.90;7.10;;;22.10;99.90;;;;;;5041942;28;20520;-80
2023/08/23 02:05:16;;;;;;;7.60;7.00;;;22.00;99.90;;;;;;5041589;28;20434;-80
2023/08/23 02:07:41;;;;;;;8.67;6.87;;;21.50;99.90;;;;;;5043776;28;20395;-80
2023/08/23 02:10:07;;;;;;;7.55;6.95;;;22.00;99.90;;;;;;5040106;28;20494;-80
2023/08/23 02:12:33;;;;;;;8.50;7.60;;;22.10;99.90;;;;;;5038511;28;20458;-81
2023/08/23 02:14:58;;;;;;;8.40;7.60;;;22.10;99.90;;;;;;5043413;28;20391;-80
2023/08/23 02:17:24;;;;;;;8.85;7.90;;;22.00;99.90;;;;;;5044670;28;20397;-80
2023/08/23 02:19:49;;;;;;;8.33;7.53;;;22.10;99.90;;;;;;5044611;28;20394;-80
2023/08/23 02:22:15;;;;;;;7.90;7.18;;;21.90;99.90;;;;;;5044196;28;20441;-81
2023/08/23 02:24:41;;;;;;;7.70;7.00;;;21.80;99.90;;;;;;5044226;28;20704;-80
2023/08/23 02:27:06;;;;;;;7.95;7.25;;;21.70;99.90;;;;;;5043283;28;20382;-80
2023/08/23 02:29:32;;;;;;;7.60;7.00;;;21.80;99.90;;;;;;5045824;28;20487;-81
2023/08/23 02:31:57;;;;;;;8.05;7.32;;;21.80;99.90;;;;;;5042103;28;20383;-80
2023/08/23 02:34:23;;;;;;;8.73;7.93;;;21.70;99.90;;;;;;5043532;28;20537;-81
2023/08/23 02:36:48;;;;;;;8.90;8.10;;;20.70;99.90;;;;;;5044557;28;20468;-80
2023/08/23 02:39:14;;;;;;;8.80;8.07;;;21.70;99.90;;;;;;5043253;28;20406;-80
2023/08/23 02:41:40;;;;;;;7.65;7.03;;;21.80;99.90;;;;;;5042820;28;20411;-81
2023/08/23 02:44:05;;;;;;;8.82;8.02;;;21.80;99.90;;;;;;5045438;28;20390;-79
2023/08/23 02:46:31;;;;;;;8.60;7.50;;;21.70;99.90;;;;;;5053150;28;20462;-80
2023/08/23 02:48:56;;;;;;;8.60;7.60;;;21.70;99.90;;;;;;5047353;28;20398;-79
2023/08/23 02:51:22;;;;;;;8.00;7.30;;;21.60;99.90;;;;;;5046413;28;20402;-80
2023/08/23 02:53:47;;;;;;;9.27;7.67;;;21.70;99.90;;;;;;5045978;28;20415;-80
2023/08/23 02:56:13;;;;;;;8.82;7.93;;;21.70;99.90;;;;;;5043396;28;20912;-80
2023/08/23 02:58:38;;;;;;;8.17;7.47;;;21.60;99.90;;;;;;5042466;28;20691;-80
2023/08/23 03:01:04;;;;;;;8.25;7.47;;;21.70;99.90;;;;;;5042729;28;20494;-80
2023/08/23 03:03:29;;;;;;;8.90;8.10;;;21.70;99.90;;;;;;5041476;28;20418;-80
2023/08/23 03:05:57;;;;;;;8.75;7.85;;;21.70;99.90;;;;;;5040710;28;20921;-80
2023/08/23 03:08:23;;;;;;;8.38;7.68;;;20.80;99.90;;;;;;5042243;28;20383;-80
2023/08/23 03:10:49;;;;;;;8.90;8.00;;;21.50;99.90;;;;;;5041340;28;20387;-80
2023/08/23 03:13:15;;;;;;;8.00;7.30;;;21.60;99.90;;;;;;5041333;28;20417;-80
2023/08/23 03:15:40;;;;;;;8.05;7.35;;;21.60;99.90;;;;;;5041746;28;20470;-80
2023/08/23 03:18:06;;;;;;;8.60;7.70;;;21.70;99.90;;;;;;5040590;28;20387;-80
2023/08/23 03:20:32;;;;;;;7.70;7.00;;;21.60;99.90;;;;;;5041536;28;20386;-80
2023/08/23 03:22:58;;;;;;;9.10;7.30;;;21.60;99.90;;;;;;5040002;28;20379;-80
2023/08/23 03:25:23;;;;;;;8.13;7.45;;;21.50;99.90;;;;;;5039392;28;20885;-79
2023/08/23 03:27:52;;;;;;;10.53;7.73;;;21.50;99.90;;;;;;5040514;28;20409;-80
2023/08/23 03:30:18;;;;;;;7.80;7.10;;;21.20;99.90;;;;;;5038812;28;20393;-79
2023/08/23 03:32:44;;;;;;;8.10;7.40;;;21.60;99.90;;;;;;5042803;28;20398;-78
2023/08/23 03:35:10;;;;;;;8.00;7.30;;;21.50;99.90;;;;;;5042049;28;20395;-79
2023/08/23 03:37:35;;;;;;;8.20;7.50;;;21.50;99.90;;;;;;5040454;28;20483;-79
2023/08/23 03:40:01;;;;;;;8.13;7.33;;;21.60;99.90;;;;;;5042093;28;20402;-80
2023/08/23 03:42:26;;;;;;;8.70;7.90;;;21.50;99.90;;;;;;5042395;28;20425;-80
2023/08/23 03:44:53;;;;;;;10.20;7.60;;;21.50;99.90;;;;;;5042214;28;20399;-80
2023/08/23 03:47:19;;;;;;;8.23;7.53;;;21.50;99.90;;;;;;5040713;28;20418;-80
2023/08/23 03:49:44;;;;;;;8.13;7.43;;;21.50;99.90;;;;;;5040464;28;20395;-80
2023/08/23 03:52:10;;;;;;;8.60;7.80;;;21.40;99.90;;;;;;5041437;28;20399;-79
2023/08/23 03:54:35;;;;;;;8.75;7.95;;;21.40;99.90;;;;;;5041583;28;20403;-80
2023/08/23 03:57:01;;;;;;;8.53;7.70;;;21.40;99.90;;;;;;5045137;28;20395;-79
2023/08/23 03:59:26;;;;;;;9.35;7.70;;;21.40;99.90;;;;;;5044969;28;20419;-80
2023/08/23 04:01:52;;;;;;;7.80;7.20;;;21.30;99.90;;;;;;5043648;28;20961;-80
2023/08/23 04:04:18;;;;;;;10.10;7.83;;;20.60;99.90;;;;;;5044404;28;20410;-80
2023/08/23 04:06:43;;;;;;;8.38;7.68;;;21.40;99.90;;;;;;5044811;28;20898;-80
2023/08/23 04:09:09;;;;;;;8.43;7.73;;;21.30;99.90;;;;;;5044697;28;20478;-80
2023/08/23 04:11:34;;;;;;;8.60;7.90;;;21.30;99.90;;;;;;5042472;28;20422;-80
2023/08/23 04:14:00;;;;;;;10.00;9.00;;;21.10;99.90;;;;;;5041641;28;20424;-80
2023/08/23 04:16:25;;;;;;;8.60;7.80;;;21.20;99.90;;;;;;5042704;28;20402;-80
2023/08/23 04:18:51;;;;;;;8.70;7.80;;;21.30;99.90;;;;;;5042331;28;20453;-80
2023/08/23 04:21:16;;;;;;;9.00;8.20;;;21.30;99.90;;;;;;5040529;28;20495;-80
2023/08/23 04:23:42;;;;;;;8.55;7.70;;;21.30;99.90;;;;;;5040400;28;20550;-81
2023/08/23 04:26:07;;;;;;;8.43;7.63;;;21.30;99.90;;;;;;5040031;28;20375;-80
2023/08/23 04:28:33;;;;;;;8.52;7.80;;;21.20;99.90;;;;;;5030932;28;20394;-80
2023/08/23 04:31:02;;;;;;;7.80;7.10;;;21.10;99.90;;;;;;5040354;28;20433;-79
2023/08/23 04:33:37;;;;;;;8.65;7.55;;;21.00;99.90;;;;;;5063538;23;20470;-84
2023/08/23 04:36:17;;;;;;;12.88;8.70;;;20.80;99.90;;;;;;5009610;28;20554;-84
2023/08/23 04:38:57;;;;;;;8.75;7.45;;;20.80;99.90;;;;;;5011810;28;20385;-84
2023/08/23 04:41:26;;;;;;;8.48;7.68;;;;;;;;;;5011108;28;20419;-84
2023/08/23 04:43:57;;;;;;;8.52;7.78;;;21.00;99.90;;;;;;5008426;28;20398;-84
2023/08/23 04:46:29;;;;;;;8.73;8.02;;;;;;;;;;4992183;28;20841;-84
2023/08/23 04:48:57;;;;;;;8.40;7.70;;;21.00;99.90;;;;;;4990646;28;20667;-84
2023/08/23 04:51:39;;;;;;;8.25;7.55;;;21.10;99.90;;;;;;4992592;28;20469;-84
2023/08/23 04:54:05;;;;;;;8.25;7.45;;;;;;;;;;4992217;28;20401;-84
2023/08/23 04:56:31;;;;;;;8.10;7.40;;;21.20;99.90;;;;;;5005146;28;20386;-84
2023/08/23 04:58:58;;;;;;;7.80;7.20;;;21.10;99.90;;;;;;5017554;28;20457;-84
2023/08/23 05:01:24;;;;;;;9.40;8.40;;;21.20;99.90;;;;;;5016959;28;20425;-83
2023/08/23 05:03:53;;;;;;;8.60;7.82;;;;;;;;;;5003703;28;20403;-84
2023/08/23 05:06:21;;;;;;;8.90;8.10;;;21.10;99.90;;;;;;4990819;28;20413;-84
2023/08/23 05:09:02;;;;;;;8.77;7.87;;;21.10;99.90;;;;;;4986267;28;20442;-84
2023/08/23 05:11:28;;;;;;;8.70;7.90;;;21.00;99.90;;;;;;4990697;28;20452;-84
2023/08/23 05:14:09;;;;;;;9.60;8.60;;;21.10;99.90;;;;;;4991973;28;20802;-84
2023/08/23 05:16:42;;;;;;;8.73;8.02;;;21.10;99.90;;;;;;4992174;28;20386;-84
2023/08/23 05:19:14;;;;;;;9.40;8.33;;;21.20;99.90;;;;;;4991373;28;20410;-84
2023/08/23 05:21:48;;;;;;;8.90;8.20;;;21.20;99.90;;;;;;4994038;28;20791;-84
2023/08/23 05:24:21;;;;;;;8.90;8.00;;;;;;;;;;4994078;28;20390;-84
2023/08/23 05:26:54;;;;;;;8.20;7.55;;;21.20;99.90;;;;;;5003922;28;20405;-85
2023/08/23 05:29:41;;;;;;;8.27;7.68;;;21.20;99.90;;;;;;4997061;28;20518;-84
2023/08/23 05:32:12;;;;;;;9.10;8.30;;;21.30;99.90;;;;;;4992512;28;20398;-84
2023/08/23 05:34:39;;;;;;;9.30;8.50;;;21.30;99.90;;;;;;4990804;28;20501;-84
2023/08/23 05:37:16;;;;;;;9.45;8.55;;;21.30;99.90;;;;;;5020197;28;20392;-84
2023/08/23 05:39:47;;;;;;;9.23;8.43;;;21.30;99.90;;;;;;5002004;28;20758;-84
2023/08/23 05:42:18;;;;;;;8.68;7.80;;;21.30;99.90;;;;;;4990658;28;20406;-83
2023/08/23 05:44:55;;;;;;;9.60;8.60;;;21.40;99.90;;;;;;4991648;28;20786;-84
2023/08/23 05:47:35;;;;;;;9.23;8.43;;;;;;;;;;4989480;28;20392;-84
2023/08/23 05:50:03;;;;;;;8.75;7.95;;;;;;;;;;4991659;28;20382;-85
2023/08/23 05:52:35;;;;;;;9.10;8.30;;;21.40;99.90;;;;;;4992524;28;20394;-84
2023/08/23 05:55:08;;;;;;;9.35;8.52;;;;;;;;;;4987748;28;20976;-84
2023/08/23 05:57:37;;;;;;;9.23;8.43;;;;;;;;;;4989612;28;20891;-84
2023/08/23 06:00:11;;;;;;;9.70;8.80;;;21.50;99.90;;;;;;4990083;28;20397;-84
2023/08/23 06:02:56;;;;;;;9.10;8.30;;;23.10;99.90;;;;;;4990246;28;20456;-84
2023/08/23 06:05:34;;;;;;;10.65;8.90;;;;;;;;;;4989523;28;20414;-84
2023/08/23 06:08:18;;;;;;;8.98;8.20;;;21.70;99.90;;;;;;4990243;28;21136;-85
2023/08/23 06:10:48;;;;;;;9.40;8.60;;;21.70;99.90;;;;;;4989124;28;20430;-84
2023/08/23 06:13:16;;;;;;;9.25;8.30;;;21.80;99.90;;;;;;4993032;28;20394;-84
2023/08/23 06:15:48;;;;;;;9.50;8.60;;;21.30;99.90;;;;;;4993403;28;20394;-84
2023/08/23 06:18:26;;;;;;;;;;;;;;;;;;;;;
2023/08/23 06:20:58;;;;;;;9.52;8.63;;;22.00;99.90;;;;;;4991402;28;20407;-85
2023/08/23 06:23:29;;;;;;;9.20;8.40;;;22.10;99.90;;;;;;4994612;28;20514;-85
2023/08/23 06:26:02;;;;;;;8.93;8.02;;;23.30;99.90;;;;;;4992097;28;20843;-84
2023/08/23 06:28:51;;;;;;;9.07;8.27;;;22.60;99.90;;;;;;4990545;28;20437;-84
2023/08/23 06:31:23;;;;;;;9.15;8.25;;;;;;;;;;4983680;28;20453;-84
2023/08/23 06:33:55;;;;;;;9.05;8.23;;;22.40;99.90;;;;;;4987200;28;20399;-83
2023/08/23 06:36:23;;;;;;;9.85;8.30;;;22.40;99.90;;;;;;4990928;28;20433;-84
2023/08/23 06:38:52;;;;;;;9.05;8.27;;;25.40;99.90;;;;;;4990691;28;20399;-85
2023/08/23 06:41:20;;;;;;;10.00;8.90;;;22.50;99.90;;;;;;4991656;28;20504;-84
2023/08/23 06:44:01;;;;;;;9.30;8.40;;;22.50;99.90;;;;;;4991807;28;20398;-84
2023/08/23 06:46:30;;;;;;;8.70;7.90;;;22.50;99.90;;;;;;4990883;28;21025;-84
2023/08/23 06:49:01;;;;;;;9.20;8.30;;;22.60;99.90;;;;;;4995189;28;20461;-84
2023/08/23 06:51:29;;;;;;;10.02;9.02;;;;;;;;;;4991867;28;20499;-86
2023/08/23 06:54:04;;;;;;;9.80;8.70;;;22.60;99.90;;;;;;4990613;28;20393;-85
2023/08/23 06:56:41;;;;;;;9.18;8.38;;;;;;;;;;4992240;28;20395;-84
2023/08/23 06:59:07;;;;;;;8.05;7.32;;;22.60;99.90;;;;;;4995021;28;20399;-84
2023/08/23 07:01:39;;;;;;;8.10;6.70;;;;;;;;;;4997657;28;20407;-83
2023/08/23 07:04:05;;;;;;;7.50;6.70;;;23.10;99.90;;;;;;5000448;28;20414;-83
2023/08/23 07:06:52;;;;;;;8.45;6.40;;;23.20;99.90;;;;;;5005059;28;20422;-83
2023/08/23 07:09:18;;;;;;;7.47;6.88;;;;;;;;;;4999590;28;20414;-84
2023/08/23 07:11:44;;;;;;;6.93;6.30;;;23.20;99.90;;;;;;4996463;28;20898;-83
2023/08/23 07:14:15;;;;;;;7.28;6.53;;;23.20;99.90;;;;;;4997567;28;20474;-83
2023/08/23 07:16:41;;;;;;;6.70;6.10;;;23.20;99.90;;;;;;4994825;28;20482;-83
2023/08/23 07:19:13;;;;;;;6.90;6.20;;;23.10;99.90;;;;;;4995678;28;21004;-86
2023/08/23 07:21:47;;;;;;;7.03;6.32;;;23.40;99.90;;;;;;4993026;28;21042;-85
2023/08/23 07:24:18;;;;;;;9.05;6.20;;;23.80;99.90;;;;;;4995522;28;20414;-83
2023/08/23 07:26:43;;;;;;;8.23;6.15;;;23.70;99.90;;;;;;4995735;28;20383;-84
2023/08/23 07:29:15;;;;;;;7.87;6.53;;;25.30;99.90;;;;;;4995052;28;20405;-84
2023/08/23 07:31:45;;;;;;;7.10;6.40;;;23.20;99.90;;;;;;4993320;28;20413;-85
2023/08/23 07:34:17;;;;;;;7.15;6.45;;;23.30;99.90;;;;;;4993512;28;20766;-84
2023/08/23 07:36:49;;;;;;;7.10;6.40;;;;;;;;;;4995668;28;20845;-84
2023/08/23 07:39:27;;;;;;;6.97;6.38;;;23.40;99.90;;;;;;4995098;28;20378;-83
2023/08/23 07:41:56;;;;;;;6.55;6.00;;;23.60;99.90;;;;;;4994543;28;20465;-84
2023/08/23 07:44:21;;;;;;;6.60;5.93;;;23.70;99.90;;;;;;4994894;28;20964;-84
2023/08/23 07:46:47;;;;;;;8.27;6.75;;;23.40;99.90;;;;;;4989766;28;20400;-84
2023/08/23 07:49:21;;;;;;;6.93;6.30;;;25.70;99.90;;;;;;4991636;28;20910;-84
2023/08/23 07:51:49;;;;;;;6.20;5.60;;;23.50;99.90;;;;;;4994775;28;20406;-84
2023/08/23 07:54:18;;;;;;;8.00;6.17;;;23.00;99.90;;;;;;4995462;28;20425;-84
2023/08/23 07:56:44;;;;;;;7.57;6.75;;;;;;;;;;4987441;28;20457;-85
2023/08/23 07:59:10;;;;;;;7.15;6.45;;;23.60;99.90;;;;;;4997375;28;20399;-83
2023/08/23 08:01:36;;;;;;;8.30;6.90;;;23.50;99.90;;;;;;4999507;28;20488;-85
2023/08/23 08:04:10;;;;;;;7.63;6.93;;;23.90;99.90;;;;;;4994824;28;20399;-84
2023/08/23 08:06:48;;;;;;;7.43;6.72;;;22.30;99.90;;;;;;4997935;28;20391;-84
2023/08/23 08:09:29;;;;;;;8.38;7.20;;;24.00;99.90;;;;;;4996199;28;20378;-84
2023/08/23 08:12:03;;;;;;;7.70;6.90;;;23.00;99.90;;;;;;4993938;28;20409;-84
2023/08/23 08:14:43;;;;;;;7.55;6.95;;;25.70;99.90;;;;;;4994377;28;20914;-85
2023/08/23 08:17:21;;;;;;;7.00;6.32;;;23.80;99.90;;;;;;4987777;28;20887;-84
2023/08/23 08:19:59;;;;;;;7.50;6.80;;;25.20;99.90;;;;;;5009976;28;20395;-83
2023/08/23 08:23:00;;;;;;;;;;;;;;;;;;;;;
2023/08/23 08:25:35;;;;;;;7.03;6.43;;;24.20;99.90;;;;;;4995374;28;20489;-84
2023/08/23 08:28:11;;;;;;;9.43;6.70;;;24.20;99.90;;;;;;5002922;28;20812;-84
2023/08/23 08:30:50;;;;;;;8.93;6.80;;;24.30;99.90;;;;;;4984474;28;20394;-84
2023/08/23 08:33:46;;;;;;;7.67;6.87;;;24.30;99.90;;;;;;4989763;28;20390;-84
2023/08/23 08:39:44;;;;;;;7.50;6.80;;;24.90;99.90;;;;;;4996867;28;20720;-84
2023/08/23 08:42:32;;;;;;;6.93;6.10;;;24.80;99.90;;;;;;4993546;28;20442;-84
2023/08/23 08:45:16;;;;;;;7.10;6.40;;;24.70;99.90;;;;;;4986989;28;20878;-84
2023/08/23 08:47:54;;;;;;;7.15;6.07;;;25.00;99.90;;;;;;4995537;28;20469;-84
2023/08/23 08:50:32;;;;;;;6.80;6.20;;;24.80;99.90;;;;;;4995190;28;20394;-84
2023/08/23 08:53:12;;;;;;;7.13;6.63;;;24.80;99.90;;;;;;4977721;28;20419;-82
2023/08/23 08:56:11;;;;;;;7.95;7.28;;;24.80;99.90;;;;;;4973076;28;20530;-82
2023/08/23 08:58:46;;;;;;;7.78;6.63;;;24.90;99.90;;;;;;4977500;28;20400;-83
2023/08/23 09:01:22;;;;;;;6.82;6.10;;;25.00;99.90;;;;;;4981122;28;20427;-83
2023/08/23 09:04:05;;;;;;;6.77;6.00;;;25.10;99.90;;;;;;4997040;28;20462;-84
2023/08/23 09:06:47;;;;;;;6.28;5.70;;;27.40;99.90;;;;;;4999375;28;21028;-84
2023/08/23 09:09:16;;;;;;;6.30;5.70;;;;;;;;;;5014848;28;20390;-84
2023/08/23 09:11:57;;;;;;;;;;;;;;;;;;;;;
2023/08/23 09:14:25;;;;;;;5.90;5.40;;;25.10;99.90;;;;;;5015151;28;20402;-83
2023/08/23 09:17:04;;;;;;;6.93;5.95;;;25.10;99.90;;;;;;5030740;28;20466;-83
2023/08/23 09:22:27;;;;;;;6.90;6.30;;;25.40;99.90;;;;;;5014394;28;20429;-82
2023/08/23 09:25:08;;;;;;;7.18;5.47;;;25.50;99.90;;;;;;5009068;28;20394;-83
2023/08/23 09:27:34;;;;;;;7.60;5.85;;;;;;;;;;4991052;28;20404;-84
2023/08/23 09:30:03;;;;;;;6.57;5.83;;;25.80;99.90;;;;;;4999718;28;20382;-83
2023/08/23 09:32:29;;;;;;;6.60;5.90;;;25.90;99.90;;;;;;4994800;28;20394;-83
2023/08/23 09:34:54;;;;;;;6.30;5.70;;;25.90;99.90;;;;;;5000869;28;20408;-83
2023/08/23 09:37:20;;;;;;;6.50;6.00;;;26.10;99.90;;;;;;5000644;28;20843;-85
2023/08/23 09:39:45;;;;;;;8.82;6.00;;;25.80;99.90;;;;;;4997936;28;21455;-83
2023/08/23 09:42:14;;;;;;;8.57;6.50;;;26.00;99.90;;;;;;5002329;28;20465;-84
2023/08/23 09:44:44;;;;;;;7.32;6.63;;;26.00;99.90;;;;;;5006949;23;20538;-84
2023/08/23 09:47:21;;;;;;;7.77;7.00;;;26.00;99.90;;;;;;4996551;28;20395;-83
2023/08/23 09:50:35;;;;;;;7.00;6.40;;;25.60;99.90;;;;;;4998950;28;20462;-84
2023/08/23 09:53:11;;;;;;;7.10;6.50;;;26.30;99.90;;;;;;4994048;28;20395;-83
2023/08/23 09:55:39;;;;;;;7.00;6.15;;;26.20;99.90;;;;;;5028227;28;20396;-84
2023/08/23 09:58:13;;;;;;;7.07;6.30;;;26.30;99.90;;;;;;5016960;28;20469;-84
2023/08/23 10:00:39;;;;;;;7.00;6.30;;;26.70;99.90;;;;;;5014758;28;20435;-84
2023/08/23 10:03:07;;;;;;;7.17;6.50;;;26.40;99.90;;;;;;5015999;28;20408;-87
2023/08/23 10:05:34;;;;;;;7.10;6.22;;;26.50;99.90;;;;;;5019798;28;20405;-86
2023/08/23 10:08:02;;;;;;;8.30;6.07;;;26.40;99.90;;;;;;5018650;28;20380;-87
2023/08/23 10:10:30;;;;;;;7.13;6.07;;;26.70;99.90;;;;;;5021768;28;20383;-87
2023/08/23 10:13:00;;;;;;;6.43;5.82;;;26.80;99.90;;;;;;5012544;28;20447;-86
2023/08/23 10:15:31;;;;;;;7.07;6.45;;;26.50;99.90;;;;;;5013150;28;20409;-87
2023/08/23 10:18:02;;;;;;;6.90;6.20;;;26.70;99.90;;;;;;5012612;28;20862;-86
2023/08/23 10:20:27;;;;;;;7.20;6.55;;;26.70;99.90;;;;;;5007995;28;20393;-86
2023/08/23 10:22:56;;;;;;;6.70;6.10;;;27.70;99.90;;;;;;5005439;28;20460;-86
2023/08/23 10:25:22;;;;;;;6.82;6.15;;;26.70;99.90;;;;;;5011639;28;20400;-87
2023/08/23 10:27:52;;;;;;;7.25;5.90;;;26.80;99.90;;;;;;5011674;28;20463;-87
2023/08/23 10:30:23;;;;;;;6.90;6.10;;;27.00;99.90;;;;;;5011830;28;20385;-87
2023/08/23 10:32:49;;;;;;;6.30;5.80;;;26.50;99.90;;;;;;5017742;28;20400;-88
2023/08/23 10:35:27;;;;;;;6.43;5.82;;;27.10;99.90;;;;;;5019803;28;21016;-87
2023/08/23 10:37:53;;;;;;;7.00;6.40;;;27.00;1.00;;;;;;5028546;28;20404;-89
2023/08/23 10:40:20;;;;;;;6.38;5.88;;;27.30;1.00;;;;;;5032900;28;20380;-88
2023/08/23 10:42:49;;;;;;;7.70;6.32;;;27.60;1.00;;;;;;5031514;28;20778;-89
2023/08/23 10:45:16;;;;;;;6.75;6.10;;;28.20;11.90;;;;;;5031682;28;20408;-88
2023/08/23 10:47:42;;;;;;;6.45;5.95;;;26.10;1.00;;;;;;5034661;28;20416;-89
2023/08/23 10:50:08;;;;;;;6.77;6.07;;;27.60;1.00;;;;;;5036102;28;20392;-88
2023/08/23 10:52:34;;;;;;;6.38;5.78;;;27.60;1.00;;;;;;5034431;28;20491;-89
2023/08/23 10:55:00;;;;;;;6.73;5.70;;;27.60;1.00;;;;;;5037552;28;20460;-88
2023/08/23 10:57:25;;;;;;;7.25;5.30;;;27.70;1.00;;;;;;5025453;28;20799;-88
2023/08/23 10:59:51;;;;;;;6.25;5.50;;;28.20;1.10;;;;;;5029026;28;20389;-88
2023/08/23 11:02:16;;;;;;;6.40;5.97;;;29.60;1.00;;;;;;5026741;28;20456;-87
2023/08/23 11:04:42;;;;;;;5.40;5.00;;;28.10;54.50;;;;;;5034316;28;20431;-87
2023/08/23 11:07:08;;;;;;;5.75;5.22;;;27.90;99.90;;;;;;5024908;28;20431;-87
2023/08/23 11:09:34;;;;;;;6.47;5.93;;;28.40;99.90;;;;;;5030797;28;20397;-88
2023/08/23 11:12:00;;;;;;;6.70;6.00;;;28.20;99.90;;;;;;5028597;28;20416;-87
2023/08/23 11:14:25;;;;;;;6.00;5.50;;;28.00;99.90;;;;;;5031346;28;20373;-88
2023/08/23 11:16:51;;;;;;;5.80;5.20;;;29.30;99.90;;;;;;5029795;28;20381;-86
2023/08/23 11:19:17;;;;;;;6.50;5.43;;;28.40;90.30;;;;;;5031138;28;20396;-88
2023/08/23 11:21:43;;;;;;;6.30;5.70;;;30.00;99.90;;;;;;5033103;28;20446;-88
2023/08/23 11:24:09;;;;;;;5.77;5.27;;;28.90;99.90;;;;;;5033052;28;20393;-88
2023/08/23 11:26:35;;;;;;;5.30;4.90;;;29.10;1.00;;;;;;5030405;28;20412;-87
2023/08/23 11:29:01;;;;;;;6.15;4.85;;;28.60;43.20;;;;;;5031645;28;20389;-87
2023/08/23 11:31:27;;;;;;;5.85;5.35;;;28.60;1.00;;;;;;5030852;28;20388;-86
2023/08/23 11:33:54;;;;;;;6.30;5.50;;;29.40;99.90;;;;;;5030111;28;20401;-88
2023/08/23 11:36:19;;;;;;;5.65;5.05;;;29.10;1.00;;;;;;5025465;28;20460;-87
2023/08/23 11:38:49;;;;;;;5.80;5.20;;;30.30;29.60;;;;;;5017588;28;20401;-88
2023/08/23 11:41:25;;;;;;;4.72;4.32;;;30.20;1.00;;;;;;5025157;23;20397;-80
2023/08/23 11:43:53;;;;;;;4.60;4.20;;;30.60;1.00;;;;;;4998021;28;20387;-80
2023/08/23 11:46:18;;;;;;;5.05;4.55;;;31.00;1.00;;;;;;4995832;28;20422;-79
2023/08/23 11:48:44;;;;;;;4.30;4.00;;;31.30;1.00;;;;;;4998342;28;20386;-79
2023/08/23 11:51:10;;;;;;;4.90;4.50;;;31.20;1.00;;;;;;4999649;28;20450;-79
2023/08/23 11:53:35;;;;;;;4.20;3.90;;;31.40;1.00;;;;;;5015696;28;20400;-79
2023/08/23 11:56:05;;;;;;;5.90;4.60;;;31.50;4.50;;;;;;5015804;28;20454;-79
2023/08/23 11:58:30;;;;;;;6.10;4.88;;;31.20;15.90;;;;;;5016920;28;20389;-79
2023/08/23 12:00:56;;;;;;;4.50;4.10;;;31.10;28.90;;;;;;5015989;28;20402;-79
2023/08/23 12:03:21;;;;;;;4.40;4.00;;;30.80;10.60;;;;;;5016133;28;20401;-79
2023/08/23 12:05:47;;;;;;;4.30;3.70;;;31.50;1.00;;;;;;5016855;28;20404;-79
2023/08/23 12:08:12;;;;;;;4.50;4.10;;;31.60;1.00;;;;;;5017212;28;20393;-80
2023/08/23 12:10:38;;;;;;;4.60;4.20;;;31.10;1.00;;;;;;5017094;28;20396;-79
2023/08/23 12:13:04;;;;;;;5.50;4.00;;;30.80;1.00;;;;;;5018629;28;20928;-80
2023/08/23 12:15:29;;;;;;;4.07;3.67;;;30.90;56.90;;;;;;5019184;28;20947;-79
2023/08/23 12:17:55;;;;;;;5.60;4.40;;;31.20;1.00;;;;;;5023381;28;20424;-79
2023/08/23 12:20:21;;;;;;;4.50;4.10;;;31.00;1.00;;;;;;5021748;28;20389;-79
2023/08/23 12:22:47;;;;;;;6.70;4.00;;;30.80;1.00;;;;;;5020761;28;20416;-78
2023/08/23 12:25:13;;;;;;;5.00;4.38;;;31.10;1.00;;;;;;5024883;28;20386;-78
2023/08/23 12:27:39;;;;;;;4.90;4.40;;;31.50;10.90;;;;;;5023868;28;20531;-79
2023/08/23 12:30:06;;;;;;;4.63;4.13;;;31.10;99.90;;;;;;5019066;28;20431;-79
2023/08/23 12:32:32;;;;;;;4.30;4.00;;;31.40;83.40;;;;;;5020717;28;20412;-79
2023/08/23 12:34:57;;;;;;;6.10;4.30;;;31.70;1.00;;;;;;5022597;28;20392;-79
2023/08/23 12:37:23;;;;;;;4.50;4.20;;;32.00;1.00;;;;;;5023491;28;20412;-79
2023/08/23 12:39:49;;;;;;;4.60;4.20;;;31.70;1.00;;;;;;5020656;28;20408;-78
2023/08/23 12:42:15;;;;;;;4.97;4.00;;;31.40;1.00;;;;;;5025217;28;20431;-79
2023/08/23 12:44:41;;;;;;;4.50;3.97;;;31.50;1.00;;;;;;5008062;28;20390;-79
2023/08/23 12:47:06;;;;;;;4.27;3.87;;;31.40;1.00;;;;;;5004476;28;20866;-79
2023/08/23 12:49:32;;;;;;;4.93;4.43;;;31.70;20.90;;;;;;4996739;28;20846;-79
2023/08/23 12:51:57;;;;;;;5.40;4.63;;;31.40;55.00;;;;;;5015944;28;20483;-79
2023/08/23 12:54:23;;;;;;;7.33;4.50;;;31.50;1.00;;;;;;5014988;28;20392;-79
2023/08/23 12:56:48;;;;;;;4.57;4.20;;;31.30;75.40;;;;;;5013437;28;20393;-78
2023/08/23 12:59:14;;;;;;;5.28;4.78;;;31.20;1.60;;;;;;5013042;28;20848;-79
2023/08/23 13:01:40;;;;;;;6.40;4.60;;;31.50;1.00;;;;;;5014061;28;20820;-79
2023/08/23 13:04:05;;;;;;;4.50;4.10;;;31.60;13.00;;;;;;5009615;28;20395;-79
2023/08/23 13:06:31;;;;;;;4.20;3.90;;;31.70;1.00;;;;;;5009743;28;20431;-79
2023/08/23 13:08:56;;;;;;;5.97;4.83;;;31.70;1.00;;;;;;5015020;28;20430;-79
2023/08/23 13:11:22;;;;;;;4.50;4.20;;;31.00;1.00;;;;;;5011674;28;20434;-79
2023/08/23 13:13:50;;;;;;;4.70;4.30;;;31.60;1.00;;;;;;5012956;28;20393;-80
2023/08/23 13:16:15;;;;;;;4.15;3.80;;;31.60;99.90;;;;;;5015325;28;20487;-80